createdAt,value
2022-10-14T00:00:28.018Z,13.30
2022-10-14T00:03:52.454Z,13.50
2022-10-14T00:07:16.609Z,13.50
2022-10-14T00:10:40.573Z,13.50
2022-10-14T00:14:06.631Z,13.40
2022-10-14T00:17:31.660Z,13.40
2022-10-14T00:20:55.945Z,13.40
2022-10-14T00:24:19.713Z,13.40
2022-10-14T00:27:43.341Z,13.50
2022-10-14T00:31:08.948Z,13.50
2022-10-14T00:34:34.015Z,13.50
2022-10-14T00:37:59.030Z,13.50
2022-10-14T00:41:24.856Z,13.50
2022-10-14T00:45:07.448Z,13.50
2022-10-14T00:48:32.410Z,13.40
2022-10-14T00:52:03.902Z,13.40
2022-10-14T00:55:30.868Z,13.40
2022-10-14T00:58:56.873Z,13.40
2022-10-14T01:02:20.434Z,13.40
2022-10-14T01:05:51.179Z,13.40
2022-10-14T01:09:26.582Z,13.40
2022-10-14T01:13:00.328Z,13.40
2022-10-14T01:16:32.456Z,13.50
2022-10-14T01:20:16.117Z,13.50
2022-10-14T01:24:15.414Z,13.50
2022-10-14T01:27:56.695Z,13.50
2022-10-14T01:31:24.320Z,13.40
2022-10-14T01:34:54.881Z,13.40
2022-10-14T01:38:24.642Z,13.30
2022-10-14T01:41:51.640Z,13.30
2022-10-14T01:45:19.996Z,13.40
2022-10-14T01:48:49.004Z,13.40
2022-10-14T01:52:19.931Z,13.40
2022-10-14T01:55:47.727Z,13.40
2022-10-14T01:59:15.342Z,13.30
2022-10-14T02:02:39.453Z,13.30
2022-10-14T02:06:08.540Z,13.20
2022-10-14T02:09:43.881Z,13.30
2022-10-14T02:13:20.517Z,13.30
2022-10-14T02:16:53.362Z,13.30
2022-10-14T02:20:26.198Z,13.40
2022-10-14T02:24:17.418Z,13.40
2022-10-14T02:27:45.654Z,13.40
2022-10-14T02:31:14.325Z,13.40
2022-10-14T02:34:43.033Z,13.40
2022-10-14T02:38:07.950Z,13.40
2022-10-14T02:41:36.410Z,13.40
2022-10-14T02:45:01.973Z,13.40
2022-10-14T02:48:25.605Z,13.40
2022-10-14T02:51:51.636Z,13.40
2022-10-14T02:55:15.422Z,13.40
2022-10-14T02:58:40.547Z,13.40
2022-10-14T03:02:04.288Z,13.20
2022-10-14T03:05:28.176Z,13.20
2022-10-14T03:08:52.738Z,13.20
2022-10-14T03:12:16.893Z,13.20
2022-10-14T03:15:42.982Z,13.20
2022-10-14T03:19:08.253Z,13.20
2022-10-14T03:22:43.525Z,13.10
2022-10-14T03:26:13.090Z,13.10
2022-10-14T03:29:40.499Z,13.10
2022-10-14T03:33:15.010Z,13.20
2022-10-14T03:36:49.474Z,13.20
2022-10-14T03:40:14.006Z,13.20
2022-10-14T03:43:38.149Z,13.20
2022-10-14T03:47:02.682Z,13.20
2022-10-14T03:50:30.502Z,13.20
2022-10-14T03:53:54.491Z,13.30
2022-10-14T03:57:23.675Z,13.30
2022-10-14T04:00:51.096Z,13.30
2022-10-14T04:04:25.641Z,13.30
2022-10-14T04:07:50.706Z,13.30
2022-10-14T04:11:15.021Z,13.20
2022-10-14T04:14:38.708Z,13.10
2022-10-14T04:18:03.115Z,13.00
2022-10-14T04:21:27.872Z,13.00
2022-10-14T04:24:52.975Z,13.00
2022-10-14T04:28:17.176Z,13.10
2022-10-14T04:31:50.221Z,13.10
2022-10-14T04:35:15.389Z,13.10
2022-10-14T04:38:42.623Z,13.10
2022-10-14T04:42:08.960Z,13.20
2022-10-14T04:45:33.508Z,13.20
2022-10-14T04:48:59.434Z,13.30
2022-10-14T04:52:28.280Z,13.20
2022-10-14T04:55:58.681Z,13.20
2022-10-14T04:59:24.058Z,13.20
2022-10-14T05:02:57.355Z,13.10
2022-10-14T05:06:31.484Z,13.10
2022-10-14T05:09:56.794Z,13.10
2022-10-14T05:13:33.398Z,13.10
2022-10-14T05:17:03.291Z,13.10
2022-10-14T05:20:29.080Z,13.00
2022-10-14T05:23:54.588Z,13.00
2022-10-14T05:27:19.259Z,13.00
2022-10-14T05:30:43.536Z,13.00
2022-10-14T05:34:10.051Z,13.00
2022-10-14T05:37:33.739Z,13.10
2022-10-14T05:40:58.849Z,13.10
2022-10-14T05:44:23.281Z,13.10
2022-10-14T05:47:47.652Z,13.20
2022-10-14T05:51:23.494Z,13.20
2022-10-14T05:54:53.158Z,13.20
2022-10-14T05:58:20.781Z,13.20
2022-10-14T06:01:46.093Z,13.20
2022-10-14T06:05:10.472Z,13.30
2022-10-14T06:08:35.682Z,13.20
2022-10-14T06:12:00.662Z,13.30
2022-10-14T06:15:25.179Z,13.20
2022-10-14T06:18:53.569Z,13.20
2022-10-14T06:22:19.505Z,13.30
2022-10-14T06:25:48.657Z,13.20
2022-10-14T06:29:15.266Z,13.10
2022-10-14T06:32:39.012Z,13.20
2022-10-14T06:36:03.948Z,13.20
2022-10-14T06:39:28.241Z,13.10
2022-10-14T06:42:54.341Z,13.10
2022-10-14T06:46:18.480Z,13.10
2022-10-14T06:49:42.301Z,12.90
2022-10-14T06:53:06.184Z,12.90
2022-10-14T06:56:29.823Z,12.70
2022-10-14T07:00:01.855Z,12.80
2022-10-14T07:03:29.305Z,13.00
2022-10-14T07:06:53.254Z,13.10
2022-10-14T07:10:26.365Z,13.20
2022-10-14T07:13:50.163Z,13.20
2022-10-14T07:17:15.587Z,13.30
2022-10-14T07:20:40.494Z,13.50
2022-10-14T07:24:04.306Z,13.50
2022-10-14T07:27:27.881Z,13.60
2022-10-14T07:30:58.726Z,13.70
2022-10-14T07:34:23.805Z,13.70
2022-10-14T07:37:47.725Z,13.70
2022-10-14T07:41:16.920Z,13.60
2022-10-14T07:44:40.648Z,13.60
2022-10-14T07:48:04.601Z,13.60
2022-10-14T07:51:30.118Z,13.70
2022-10-14T07:54:53.786Z,13.80
2022-10-14T07:58:17.466Z,13.90
2022-10-14T08:01:41.172Z,14.50
2022-10-14T08:05:32.805Z,15.40
2022-10-14T08:08:51.290Z,16.20
2022-10-14T08:12:14.957Z,16.40
2022-10-14T08:15:40.709Z,17.50
2022-10-14T08:19:12.692Z,17.90
2022-10-14T08:22:37.641Z,18.80
2022-10-14T08:26:02.793Z,19.40
2022-10-14T08:29:27.307Z,19.30
2022-10-14T08:32:51.089Z,18.60
2022-10-14T08:36:15.586Z,17.60
2022-10-14T08:39:39.131Z,16.90
2022-10-14T08:43:13.913Z,16.40
2022-10-14T08:46:40.388Z,16.00
2022-10-14T08:50:09.224Z,15.60
2022-10-14T08:53:39.508Z,15.90
2022-10-14T08:57:04.826Z,16.60
2022-10-14T09:00:32.148Z,17.70
2022-10-14T09:03:59.368Z,18.00
2022-10-14T09:07:23.166Z,18.00
2022-10-14T09:10:46.990Z,18.30
2022-10-14T09:14:16.770Z,19.00
2022-10-14T09:17:46.881Z,19.20
2022-10-14T09:21:34.182Z,18.80
2022-10-14T09:25:15.490Z,18.40
2022-10-14T09:28:41.236Z,18.20
2022-10-14T09:32:09.152Z,18.10
2022-10-14T09:35:36.339Z,17.90
2022-10-14T09:39:05.308Z,18.10
2022-10-14T09:42:49.009Z,17.60
2022-10-14T09:46:12.819Z,17.20
2022-10-14T09:49:41.266Z,17.50
2022-10-14T09:53:11.029Z,17.70
2022-10-14T09:56:40.693Z,17.40
2022-10-14T10:00:09.310Z,17.60
2022-10-14T10:03:35.457Z,18.20
2022-10-14T10:07:01.482Z,19.50
2022-10-14T10:10:26.474Z,20.20
2022-10-14T10:13:50.083Z,20.50
2022-10-14T10:17:19.262Z,19.50
2022-10-14T10:20:43.098Z,18.40
2022-10-14T10:24:24.896Z,17.60
2022-10-14T10:27:52.653Z,17.00
2022-10-14T10:31:53.328Z,17.00
2022-10-14T10:35:22.329Z,16.90
2022-10-14T10:38:59.320Z,16.90
2022-10-14T10:42:29.698Z,17.00
2022-10-14T10:46:10.811Z,17.40
2022-10-14T10:49:52.742Z,18.40
2022-10-14T10:53:30.687Z,19.10
2022-10-14T10:56:57.536Z,18.90
2022-10-14T11:04:03.790Z,18.30
2022-10-14T11:07:56.618Z,18.10
2022-10-14T11:11:44.202Z,17.70
2022-10-14T11:15:21.326Z,17.60
2022-10-14T11:18:50.260Z,17.70
2022-10-14T11:22:28.827Z,18.10
2022-10-14T11:25:59.806Z,18.40
2022-10-14T11:29:46.248Z,18.40
2022-10-14T11:33:39.012Z,18.40
2022-10-14T11:37:11.948Z,18.20
2022-10-14T11:40:42.203Z,17.90
2022-10-14T11:44:13.453Z,17.90
2022-10-14T11:47:40.954Z,18.00
2022-10-14T11:51:11.611Z,18.10
2022-10-14T11:54:43.927Z,18.30
2022-10-14T11:58:15.467Z,18.60
2022-10-14T12:01:44.409Z,19.00
2022-10-14T12:05:17.708Z,19.10
2022-10-14T12:08:50.154Z,19.30
2022-10-14T12:12:17.361Z,18.80
2022-10-14T12:15:45.729Z,18.40
2022-10-14T12:19:12.886Z,18.10
2022-10-14T12:22:37.005Z,18.40
2022-10-14T12:26:07.518Z,18.30
2022-10-14T12:29:36.824Z,18.50
2022-10-14T12:33:04.361Z,18.30
2022-10-14T12:36:34.060Z,18.00
2022-10-14T12:40:24.235Z,18.20
2022-10-14T12:44:00.804Z,18.40
2022-10-14T12:47:28.866Z,18.50
2022-10-14T12:51:06.691Z,18.70
2022-10-14T12:54:31.640Z,19.10
2022-10-14T12:57:57.401Z,18.60
2022-10-14T13:01:22.351Z,18.30
2022-10-14T13:04:49.971Z,18.10
2022-10-14T13:08:28.697Z,18.10
2022-10-14T13:12:34.153Z,17.80
2022-10-14T13:15:59.528Z,17.70
2022-10-14T13:19:46.540Z,17.60
2022-10-14T13:23:29.774Z,17.60
2022-10-14T13:27:10.743Z,17.60
2022-10-14T13:30:40.543Z,17.70
2022-10-14T13:34:19.111Z,17.80
2022-10-14T13:37:46.545Z,17.80
2022-10-14T13:41:18.432Z,17.70
2022-10-14T13:44:42.112Z,17.60
2022-10-14T13:48:06.658Z,17.50
2022-10-14T13:51:44.552Z,17.50
2022-10-14T13:55:16.850Z,17.50
2022-10-14T13:58:45.564Z,17.60
2022-10-14T14:02:15.575Z,17.40
2022-10-14T14:05:42.774Z,17.50
2022-10-14T14:09:07.848Z,17.60
2022-10-14T14:12:31.491Z,17.60
2022-10-14T14:15:57.149Z,17.60
2022-10-14T14:19:23.202Z,17.70
2022-10-14T14:22:47.609Z,17.70
2022-10-14T14:26:19.635Z,17.80
2022-10-14T14:29:45.365Z,17.80
2022-10-14T14:33:16.105Z,17.70
2022-10-14T14:37:05.705Z,17.70
2022-10-14T14:40:28.994Z,17.60
2022-10-14T14:44:13.706Z,17.60
2022-10-14T14:47:39.344Z,17.70
2022-10-14T14:51:04.478Z,17.70
2022-10-14T14:54:43.214Z,17.60
2022-10-14T14:58:24.369Z,17.60
2022-10-14T15:01:48.182Z,17.60
2022-10-14T15:05:12.602Z,17.50
2022-10-14T15:08:38.757Z,17.40
2022-10-14T15:12:03.886Z,17.40
2022-10-14T15:15:31.081Z,17.20
2022-10-14T15:19:34.105Z,17.20
2022-10-14T15:23:01.335Z,17.00
2022-10-14T15:26:35.526Z,16.80
2022-10-14T15:30:27.067Z,16.50
2022-10-14T15:33:50.686Z,16.10
2022-10-14T15:37:14.657Z,15.80
2022-10-14T15:40:38.413Z,15.70
2022-10-14T15:44:03.423Z,15.60
2022-10-14T15:47:28.772Z,15.50
2022-10-14T15:50:52.453Z,15.40
2022-10-14T15:54:17.688Z,15.30
2022-10-14T15:57:41.291Z,15.20
2022-10-14T16:01:07.367Z,15.20
2022-10-14T16:04:31.122Z,15.10
2022-10-14T16:07:54.795Z,15.00
2022-10-14T16:11:22.851Z,15.00
2022-10-14T16:14:46.670Z,15.00
2022-10-14T16:18:11.635Z,14.90
2022-10-14T16:21:35.153Z,14.90
2022-10-14T16:24:59.278Z,14.90
2022-10-14T16:28:22.845Z,14.90
2022-10-14T16:31:49.209Z,14.80
2022-10-14T16:35:14.410Z,14.70
2022-10-14T16:38:38.696Z,14.70
2022-10-14T16:42:02.632Z,14.60
2022-10-14T16:45:26.246Z,14.60
2022-10-14T16:48:49.800Z,14.50
2022-10-14T16:52:15.853Z,14.50
2022-10-14T16:55:40.258Z,14.50
2022-10-14T16:59:05.284Z,14.40
2022-10-14T17:02:31.782Z,14.40
2022-10-14T17:05:58.849Z,14.30
2022-10-14T17:12:49.895Z,14.30
2022-10-14T17:16:13.890Z,14.30
2022-10-14T17:19:39.565Z,14.30
2022-10-14T17:23:09.421Z,14.40
2022-10-14T17:26:37.856Z,14.40
2022-10-14T17:30:01.564Z,14.40
2022-10-14T17:33:26.035Z,14.40
2022-10-14T17:36:50.141Z,14.40
2022-10-14T17:40:14.010Z,14.40
2022-10-14T17:43:40.342Z,14.40
2022-10-14T17:47:04.179Z,14.40
2022-10-14T17:50:27.966Z,14.40
2022-10-14T17:53:53.761Z,14.40
2022-10-14T17:57:17.401Z,14.40
2022-10-14T18:00:42.540Z,14.40
2022-10-14T18:04:07.783Z,14.40
2022-10-14T18:07:31.554Z,14.40
2022-10-14T18:10:55.093Z,14.40
2022-10-14T18:14:18.769Z,14.40
2022-10-14T18:17:43.684Z,14.40
2022-10-14T18:21:07.694Z,14.50
2022-10-14T18:24:31.257Z,14.50
2022-10-14T18:27:54.829Z,14.50
2022-10-14T18:31:20.396Z,14.60
2022-10-14T18:34:45.528Z,14.60
2022-10-14T18:38:09.155Z,14.60
2022-10-14T18:41:33.585Z,14.60
2022-10-14T18:44:59.013Z,14.70
2022-10-14T18:48:23.626Z,14.70
2022-10-14T18:51:48.663Z,14.60
2022-10-14T18:55:12.369Z,14.60
2022-10-14T18:58:36.819Z,14.60
2022-10-14T19:02:01.462Z,14.70
2022-10-14T19:05:26.784Z,14.70
2022-10-14T19:08:55.122Z,14.70
2022-10-14T19:12:36.172Z,14.70
2022-10-14T19:16:03.866Z,14.70
2022-10-14T19:19:27.454Z,14.70
2022-10-14T19:22:56.506Z,14.70
2022-10-14T19:26:23.760Z,14.70
2022-10-14T19:29:47.361Z,14.80
2022-10-14T19:33:10.874Z,14.70
2022-10-14T19:36:37.167Z,14.70
2022-10-14T19:40:00.829Z,14.70
2022-10-14T19:43:25.953Z,14.80
2022-10-14T19:46:49.585Z,14.90
2022-10-14T19:50:13.568Z,14.90
2022-10-14T19:53:37.620Z,14.90
2022-10-14T19:57:01.508Z,14.80
2022-10-14T20:00:26.512Z,14.80
2022-10-14T20:03:50.581Z,14.90
2022-10-14T20:07:14.396Z,14.80
2022-10-14T20:10:38.582Z,14.80
2022-10-14T20:14:02.225Z,14.90
2022-10-14T20:17:28.590Z,14.90
2022-10-14T20:20:56.954Z,14.80
2022-10-14T20:24:20.855Z,14.90
2022-10-14T20:27:44.769Z,14.80
2022-10-14T20:31:09.699Z,14.70
2022-10-14T20:34:35.256Z,14.70
2022-10-14T20:37:58.958Z,14.70
2022-10-14T20:41:24.452Z,14.70
2022-10-14T20:44:48.085Z,14.70
2022-10-14T20:48:11.624Z,14.70
2022-10-14T20:51:36.830Z,14.70
2022-10-14T20:55:01.121Z,14.70
2022-10-14T20:58:24.905Z,14.70
2022-10-14T21:01:48.778Z,14.70
2022-10-14T21:05:12.799Z,14.70
2022-10-14T21:08:39.439Z,14.70
2022-10-14T21:12:02.975Z,14.70
2022-10-14T21:15:27.455Z,14.70
2022-10-14T21:18:56.805Z,14.70
2022-10-14T21:22:21.940Z,14.70
2022-10-14T21:25:55.089Z,14.70
2022-10-14T21:29:19.690Z,14.70
2022-10-14T21:32:43.243Z,14.70
2022-10-14T21:36:09.782Z,14.60
2022-10-14T21:39:33.654Z,14.70
2022-10-14T21:42:59.058Z,14.70
2022-10-14T21:46:22.686Z,14.70
2022-10-14T21:49:47.167Z,14.60
2022-10-14T21:53:12.587Z,14.60
2022-10-14T21:56:38.993Z,14.60
2022-10-14T22:00:05.377Z,14.70
2022-10-14T22:03:29.523Z,14.60
2022-10-14T22:06:54.038Z,14.70
2022-10-14T22:10:36.500Z,14.60
2022-10-14T22:14:04.372Z,14.60
2022-10-14T22:17:30.723Z,14.60
2022-10-14T22:21:01.872Z,14.60
2022-10-14T22:24:26.036Z,14.60
2022-10-14T22:27:56.672Z,14.60
2022-10-14T22:31:22.804Z,14.50
2022-10-14T22:34:52.031Z,14.50
2022-10-14T22:38:18.837Z,14.50
2022-10-14T22:41:43.597Z,14.50
2022-10-14T22:45:08.575Z,14.50
2022-10-14T22:48:33.365Z,14.60
2022-10-14T22:51:58.660Z,14.50
2022-10-14T22:55:22.264Z,14.50
2022-10-14T22:58:46.696Z,14.60
2022-10-14T23:02:10.332Z,14.60
2022-10-14T23:05:34.317Z,14.60
2022-10-14T23:09:00.884Z,14.60
2022-10-14T23:12:25.713Z,14.60
2022-10-14T23:15:56.830Z,14.60
2022-10-14T23:19:20.443Z,14.60
2022-10-14T23:22:44.417Z,14.60
2022-10-14T23:26:11.419Z,14.60
2022-10-14T23:29:35.045Z,14.60
2022-10-14T23:32:59.343Z,14.60
2022-10-14T23:36:23.874Z,14.50
2022-10-14T23:39:49.263Z,14.60
2022-10-14T23:43:14.228Z,14.50
2022-10-14T23:46:38.390Z,14.50
2022-10-14T23:50:04.495Z,14.40
2022-10-14T23:53:28.979Z,14.20
2022-10-14T23:56:53.817Z,14.10
